createdAt,value
2019-04-27T00:00:32.881Z,15.99
2019-04-27T00:03:13.299Z,15.97
2019-04-27T00:05:47.350Z,15.91
2019-04-27T00:08:35.594Z,15.88
2019-04-27T00:11:08.827Z,15.89
2019-04-27T00:13:42.324Z,15.87
2019-04-27T00:16:25.671Z,15.86
2019-04-27T00:19:15.693Z,15.87
2019-04-27T00:22:07.106Z,15.88
2019-04-27T00:24:39.153Z,15.79
2019-04-27T00:27:11.105Z,15.75
2019-04-27T00:29:43.277Z,15.69
2019-04-27T00:32:15.406Z,15.67
2019-04-27T00:34:47.369Z,15.67
2019-04-27T00:37:24.070Z,15.69
2019-04-27T00:40:00.708Z,15.73
2019-04-27T00:42:33.313Z,15.75
2019-04-27T00:45:08.257Z,15.74
2019-04-27T00:47:40.379Z,15.69
2019-04-27T00:50:13.448Z,15.70
2019-04-27T00:52:45.472Z,15.71
2019-04-27T00:55:17.799Z,15.70
2019-04-27T00:57:54.508Z,15.71
2019-04-27T01:00:44.830Z,15.71
2019-04-27T01:03:18.496Z,15.72
2019-04-27T01:05:50.451Z,15.73
2019-04-27T01:08:22.925Z,15.72
2019-04-27T01:10:55.202Z,15.73
2019-04-27T01:13:29.343Z,15.74
2019-04-27T01:16:01.119Z,15.73
2019-04-27T01:18:33.085Z,15.71
2019-04-27T01:21:05.169Z,15.70
2019-04-27T01:23:38.517Z,15.59
2019-04-27T01:26:14.930Z,15.52
2019-04-27T01:28:51.209Z,15.50
2019-04-27T01:31:23.539Z,15.50
2019-04-27T01:33:55.526Z,15.50
2019-04-27T01:36:29.081Z,15.49
2019-04-27T01:39:01.144Z,15.49
2019-04-27T01:41:33.107Z,15.48
2019-04-27T01:44:05.388Z,15.46
2019-04-27T01:46:37.412Z,15.48
2019-04-27T01:49:09.502Z,15.49
2019-04-27T01:51:41.531Z,15.46
2019-04-27T01:54:15.292Z,15.41
2019-04-27T01:56:47.256Z,15.39
2019-04-27T01:59:19.919Z,15.42
2019-04-27T02:02:11.799Z,15.43
2019-04-27T02:05:01.880Z,15.40
2019-04-27T02:07:35.083Z,15.38
2019-04-27T02:10:10.749Z,15.37
2019-04-27T02:12:44.133Z,15.39
2019-04-27T02:15:16.448Z,15.39
2019-04-27T02:17:50.899Z,15.37
2019-04-27T02:20:22.527Z,15.35
2019-04-27T02:22:54.487Z,15.33
2019-04-27T02:25:26.473Z,15.27
2019-04-27T02:28:00.063Z,15.21
2019-04-27T02:30:51.630Z,15.18
2019-04-27T02:33:29.942Z,15.17
2019-04-27T02:36:01.709Z,15.13
2019-04-27T02:38:33.675Z,15.11
2019-04-27T02:41:06.445Z,15.06
2019-04-27T02:43:46.155Z,15.05
2019-04-27T02:46:20.053Z,15.04
2019-04-27T02:48:59.838Z,15.04
2019-04-27T02:51:33.303Z,15.02
2019-04-27T02:54:05.312Z,14.99
2019-04-27T02:56:40.321Z,14.98
2019-04-27T02:59:12.175Z,14.98
2019-04-27T03:01:52.960Z,14.99
2019-04-27T03:04:22.123Z,15.02
2019-04-27T03:06:54.062Z,15.05
2019-04-27T03:09:26.318Z,15.03
2019-04-27T03:11:59.514Z,14.99
2019-04-27T03:14:50.627Z,14.96
2019-04-27T03:17:24.467Z,14.92
2019-04-27T03:20:14.191Z,14.95
2019-04-27T03:22:50.455Z,14.95
2019-04-27T03:25:32.524Z,14.93
2019-04-27T03:28:10.506Z,14.92
2019-04-27T03:30:45.263Z,14.93
2019-04-27T03:33:21.489Z,14.96
2019-04-27T03:35:52.548Z,14.96
2019-04-27T03:38:23.870Z,14.93
2019-04-27T03:40:56.139Z,14.89
2019-04-27T03:43:30.219Z,14.81
2019-04-27T03:46:02.020Z,14.78
2019-04-27T03:48:33.945Z,14.78
2019-04-27T03:51:13.328Z,14.77
2019-04-27T03:53:49.867Z,14.76
2019-04-27T03:56:33.039Z,14.75
2019-04-27T03:59:12.363Z,14.74
2019-04-27T04:01:44.317Z,14.75
2019-04-27T04:04:16.339Z,14.74
2019-04-27T04:06:49.328Z,14.74
2019-04-27T04:09:23.479Z,14.71
2019-04-27T04:11:59.117Z,14.68
2019-04-27T04:14:30.696Z,14.67
2019-04-27T04:17:04.593Z,14.64
2019-04-27T04:19:51.167Z,14.63
2019-04-27T04:22:10.872Z,14.63
2019-04-27T04:24:42.815Z,14.64
2019-04-27T04:27:14.785Z,14.65
2019-04-27T04:29:49.152Z,14.65
2019-04-27T04:32:20.434Z,14.65
2019-04-27T04:34:52.371Z,14.65
2019-04-27T04:37:24.321Z,14.65
2019-04-27T04:39:56.262Z,14.64
2019-04-27T04:42:32.852Z,14.59
2019-04-27T04:45:11.848Z,14.55
2019-04-27T04:47:45.773Z,14.52
2019-04-27T04:50:22.496Z,14.53
2019-04-27T04:52:51.381Z,14.54
2019-04-27T04:55:23.606Z,14.56
2019-04-27T04:57:55.572Z,14.57
2019-04-27T05:00:29.621Z,14.56
2019-04-27T05:03:01.156Z,14.56
2019-04-27T05:05:33.405Z,14.56
2019-04-27T05:08:05.354Z,14.57
2019-04-27T05:10:39.317Z,14.58
2019-04-27T05:13:10.940Z,14.60
2019-04-27T05:15:42.901Z,14.62
2019-04-27T05:18:14.868Z,14.63
2019-04-27T05:20:51.154Z,14.64
2019-04-27T05:23:23.097Z,14.63
2019-04-27T05:25:55.060Z,14.65
2019-04-27T05:28:27.000Z,14.66
2019-04-27T05:31:00.515Z,14.67
2019-04-27T05:33:32.976Z,14.70
2019-04-27T05:36:05.278Z,14.69
2019-04-27T05:38:41.976Z,14.70
2019-04-27T05:41:11.276Z,14.71
2019-04-27T05:43:49.119Z,14.73
2019-04-27T05:46:39.642Z,14.74
2019-04-27T05:49:13.502Z,14.77
2019-04-27T05:51:47.904Z,14.79
2019-04-27T05:54:19.802Z,14.82
2019-04-27T05:56:51.742Z,14.85
2019-04-27T05:59:23.722Z,14.88
2019-04-27T06:01:55.681Z,14.88
2019-04-27T06:04:29.116Z,14.90
2019-04-27T06:07:01.265Z,14.91
2019-04-27T06:09:33.216Z,14.93
2019-04-27T06:12:05.525Z,14.96
2019-04-27T06:14:39.235Z,14.95
2019-04-27T06:17:11.140Z,14.97
2019-04-27T06:19:43.944Z,15.00
2019-04-27T06:22:16.402Z,15.02
2019-04-27T06:24:54.068Z,15.06
2019-04-27T06:27:22.284Z,15.12
2019-04-27T06:29:54.302Z,15.17
2019-04-27T06:32:26.286Z,15.23
2019-04-27T06:34:59.050Z,15.29
2019-04-27T06:37:31.314Z,15.33
2019-04-27T06:40:05.110Z,15.38
2019-04-27T06:42:37.388Z,15.44
2019-04-27T06:45:10.063Z,15.48
2019-04-27T06:47:42.191Z,15.51
2019-04-27T06:50:14.225Z,15.57
2019-04-27T06:52:46.169Z,15.62
2019-04-27T06:55:18.849Z,15.69
2019-04-27T06:57:50.920Z,15.73
2019-04-27T07:00:22.878Z,15.79
2019-04-27T07:02:55.417Z,15.88
2019-04-27T07:05:28.896Z,15.98
2019-04-27T07:08:01.156Z,16.13
2019-04-27T07:10:33.121Z,16.25
2019-04-27T07:13:05.354Z,16.35
2019-04-27T07:15:38.727Z,16.49
2019-04-27T07:18:11.434Z,16.59
2019-04-27T07:20:43.380Z,16.68
2019-04-27T07:23:15.358Z,16.78
2019-04-27T07:25:48.782Z,16.90
2019-04-27T07:28:20.777Z,16.99
2019-04-27T07:30:52.729Z,17.03
2019-04-27T07:33:25.562Z,17.06
2019-04-27T07:35:59.068Z,17.05
2019-04-27T07:38:31.122Z,17.02
2019-04-27T07:41:03.088Z,17.03
2019-04-27T07:43:36.857Z,17.04
2019-04-27T07:46:08.971Z,17.11
2019-04-27T07:48:40.967Z,17.25
2019-04-27T07:51:13.210Z,17.39
2019-04-27T07:53:45.580Z,17.55
2019-04-27T07:56:19.044Z,17.67
2019-04-27T07:58:51.185Z,17.77
2019-04-27T08:01:23.319Z,17.87
2019-04-27T08:03:55.358Z,17.98
2019-04-27T08:06:28.932Z,18.06
2019-04-27T08:09:01.233Z,18.10
2019-04-27T08:11:33.183Z,18.09
2019-04-27T08:14:05.139Z,18.06
2019-04-27T08:16:38.831Z,18.10
2019-04-27T08:19:10.963Z,18.15
2019-04-27T08:21:45.977Z,18.22
2019-04-27T08:24:16.582Z,18.22
2019-04-27T08:26:53.243Z,18.08
2019-04-27T08:29:27.105Z,17.92
2019-04-27T08:32:13.004Z,17.87
2019-04-27T08:34:44.958Z,17.90
2019-04-27T08:37:18.697Z,17.98
2019-04-27T08:39:51.113Z,18.05
2019-04-27T08:42:23.225Z,18.06
2019-04-27T08:44:55.181Z,18.12
2019-04-27T08:47:27.142Z,18.22
2019-04-27T08:49:59.242Z,18.29
2019-04-27T08:52:31.210Z,18.34
2019-04-27T08:55:03.756Z,18.36
2019-04-27T08:57:36.662Z,18.34
2019-04-27T09:00:10.150Z,18.35
2019-04-27T09:02:47.104Z,18.33
2019-04-27T09:05:17.403Z,18.34
2019-04-27T09:07:51.055Z,18.40
2019-04-27T09:10:41.239Z,18.45
2019-04-27T09:13:19.405Z,18.54
2019-04-27T09:16:01.774Z,18.53
2019-04-27T09:18:34.591Z,18.53
2019-04-27T09:21:06.610Z,18.59
2019-04-27T09:23:39.114Z,18.64
2019-04-27T09:26:11.211Z,18.71
2019-04-27T09:28:43.512Z,18.80
2019-04-27T09:31:15.473Z,18.94
2019-04-27T09:34:05.632Z,19.08
2019-04-27T09:36:56.670Z,19.22
2019-04-27T09:39:28.880Z,19.30
2019-04-27T09:42:00.861Z,19.33
2019-04-27T09:44:32.805Z,19.40
2019-04-27T09:47:06.086Z,19.48
2019-04-27T09:49:38.548Z,19.53
2019-04-27T09:52:23.426Z,19.61
2019-04-27T09:54:44.388Z,19.67
2019-04-27T09:57:28.422Z,19.71
2019-04-27T10:00:00.382Z,19.77
2019-04-27T10:02:32.326Z,19.80
2019-04-27T10:05:06.030Z,19.74
2019-04-27T10:07:38.041Z,19.59
2019-04-27T10:10:11.051Z,19.54
2019-04-27T10:12:42.985Z,19.53
2019-04-27T10:15:16.368Z,19.62
2019-04-27T10:17:48.302Z,19.72
2019-04-27T10:20:20.901Z,19.84
2019-04-27T10:22:52.914Z,19.94
2019-04-27T10:25:26.655Z,20.02
2019-04-27T10:27:58.668Z,20.05
2019-04-27T10:30:31.779Z,20.10
2019-04-27T10:33:03.726Z,20.10
2019-04-27T10:35:36.356Z,20.11
2019-04-27T10:38:08.806Z,20.11
2019-04-27T10:40:40.744Z,20.10
2019-04-27T10:43:12.715Z,20.13
2019-04-27T10:45:46.301Z,20.17
2019-04-27T10:48:18.652Z,20.22
2019-04-27T10:50:50.681Z,20.29
2019-04-27T10:53:22.640Z,20.35
2019-04-27T10:55:56.415Z,20.40
2019-04-27T10:58:28.271Z,20.45
2019-04-27T11:01:02.267Z,20.50
2019-04-27T11:04:02.028Z,20.54
2019-04-27T11:06:38.510Z,20.56
2019-04-27T11:09:12.373Z,20.59
2019-04-27T11:11:46.253Z,20.66
2019-04-27T11:14:18.058Z,20.71
2019-04-27T11:16:50.019Z,20.72
2019-04-27T11:19:39.439Z,20.75
2019-04-27T11:22:11.390Z,20.75
2019-04-27T11:24:43.333Z,20.70
2019-04-27T11:27:15.606Z,20.72
2019-04-27T11:29:48.171Z,20.76
2019-04-27T11:32:20.193Z,20.84
2019-04-27T11:35:02.865Z,20.90
2019-04-27T11:37:37.385Z,20.97
2019-04-27T11:40:11.816Z,21.03
2019-04-27T11:42:43.836Z,21.15
2019-04-27T11:45:16.089Z,21.25
2019-04-27T11:47:48.181Z,21.34
2019-04-27T11:50:20.476Z,21.39
2019-04-27T11:52:56.675Z,21.39
2019-04-27T11:55:28.683Z,21.33
2019-04-27T11:58:00.642Z,21.28
2019-04-27T12:00:33.251Z,21.25
2019-04-27T12:03:06.730Z,21.23
2019-04-27T12:05:38.847Z,21.21
2019-04-27T12:08:10.815Z,21.21
2019-04-27T12:10:42.836Z,21.24
2019-04-27T12:13:15.947Z,21.28
2019-04-27T12:15:47.980Z,21.28
2019-04-27T12:18:19.944Z,21.26
2019-04-27T12:20:52.250Z,21.22
2019-04-27T12:23:33.755Z,21.22
2019-04-27T12:25:58.213Z,21.19
2019-04-27T12:28:37.965Z,21.15
2019-04-27T12:31:17.519Z,21.08
2019-04-27T12:33:49.483Z,20.99
2019-04-27T12:36:21.441Z,20.91
2019-04-27T12:38:53.400Z,20.82
2019-04-27T12:41:25.364Z,20.73
2019-04-27T12:43:57.486Z,20.67
2019-04-27T12:46:29.967Z,20.60
2019-04-27T12:49:02.289Z,20.61
2019-04-27T12:51:35.552Z,20.68
2019-04-27T12:54:16.157Z,20.80
2019-04-27T12:56:55.991Z,20.92
2019-04-27T12:59:46.684Z,21.04
2019-04-27T13:02:20.378Z,21.16
2019-04-27T13:04:52.321Z,21.24
2019-04-27T13:07:25.987Z,21.28
2019-04-27T13:09:58.514Z,21.32
2019-04-27T13:12:30.469Z,21.41
2019-04-27T13:15:02.429Z,21.53
2019-04-27T13:17:36.505Z,21.65
2019-04-27T13:20:08.919Z,21.74
2019-04-27T13:22:40.853Z,21.78
2019-04-27T13:25:13.506Z,21.82
2019-04-27T13:27:45.776Z,21.77
2019-04-27T13:30:18.540Z,21.61
2019-04-27T13:32:50.488Z,21.53
2019-04-27T13:35:22.992Z,21.47
2019-04-27T13:37:55.961Z,21.41
2019-04-27T13:40:28.444Z,21.38
2019-04-27T13:43:07.844Z,21.45
2019-04-27T13:45:50.507Z,21.55
2019-04-27T13:48:30.210Z,21.66
2019-04-27T13:51:07.338Z,21.61
2019-04-27T13:53:39.287Z,21.53
2019-04-27T13:56:12.877Z,21.47
2019-04-27T13:58:46.362Z,21.43
2019-04-27T14:01:18.327Z,21.43
2019-04-27T14:03:50.279Z,21.45
2019-04-27T14:06:22.224Z,21.47
2019-04-27T14:08:54.174Z,21.49
2019-04-27T14:11:26.531Z,21.52
2019-04-27T14:14:16.319Z,21.57
2019-04-27T14:17:00.262Z,21.63
2019-04-27T14:19:32.209Z,21.67
2019-04-27T14:22:04.339Z,21.71
2019-04-27T14:24:38.645Z,21.70
2019-04-27T14:27:11.936Z,21.64
2019-04-27T14:29:43.885Z,21.61
2019-04-27T14:32:15.881Z,21.60
2019-04-27T14:34:50.076Z,21.62
2019-04-27T14:37:21.481Z,21.62
2019-04-27T14:39:53.428Z,21.63
2019-04-27T14:42:25.734Z,21.65
2019-04-27T14:44:58.823Z,21.67
2019-04-27T14:47:31.500Z,21.71
2019-04-27T14:50:04.585Z,21.75
2019-04-27T14:52:41.326Z,21.79
2019-04-27T14:55:30.394Z,21.86
2019-04-27T14:58:22.244Z,21.86
2019-04-27T15:00:55.146Z,21.78
2019-04-27T15:03:27.427Z,21.74
2019-04-27T15:05:59.382Z,21.72
2019-04-27T15:08:31.410Z,21.69
2019-04-27T15:11:04.211Z,21.66
2019-04-27T15:13:37.951Z,21.67
2019-04-27T15:16:12.509Z,21.67
2019-04-27T15:18:49.974Z,21.68
2019-04-27T15:21:22.020Z,21.70
2019-04-27T15:23:53.962Z,21.66
2019-04-27T15:26:25.891Z,21.71
2019-04-27T15:28:59.476Z,21.82
2019-04-27T15:31:42.240Z,21.92
2019-04-27T15:34:23.281Z,21.97
2019-04-27T15:37:05.866Z,21.99
2019-04-27T15:39:50.466Z,21.98
2019-04-27T15:42:30.652Z,21.98
2019-04-27T15:45:04.650Z,21.95
2019-04-27T15:47:42.322Z,21.89
2019-04-27T15:50:13.402Z,21.85
2019-04-27T15:52:48.636Z,21.78
2019-04-27T15:55:32.390Z,21.71
2019-04-27T15:57:55.638Z,21.63
2019-04-27T16:00:29.042Z,21.52
2019-04-27T16:03:01.891Z,21.43
2019-04-27T16:05:36.038Z,21.32
2019-04-27T16:08:12.960Z,21.26
2019-04-27T16:10:59.230Z,21.18
2019-04-27T16:13:34.139Z,21.11
2019-04-27T16:16:06.129Z,21.03
2019-04-27T16:18:57.675Z,20.95
2019-04-27T16:21:31.513Z,20.90
2019-04-27T16:24:21.364Z,20.84
2019-04-27T16:27:11.856Z,20.79
2019-04-27T16:29:44.369Z,20.75
2019-04-27T16:32:16.965Z,20.71
2019-04-27T16:34:50.674Z,20.67
2019-04-27T16:37:28.538Z,20.64
2019-04-27T16:40:00.817Z,20.63
2019-04-27T16:42:33.294Z,20.61
2019-04-27T16:45:06.442Z,20.60
2019-04-27T16:47:38.639Z,20.63
2019-04-27T16:50:12.456Z,20.66
2019-04-27T16:52:50.509Z,20.69
2019-04-27T16:55:19.930Z,20.71
2019-04-27T16:57:52.185Z,20.72
2019-04-27T17:00:26.570Z,20.74
2019-04-27T17:03:01.959Z,20.76
2019-04-27T17:05:35.450Z,20.77
2019-04-27T17:08:14.260Z,20.74
2019-04-27T17:10:42.748Z,20.69
2019-04-27T17:13:18.593Z,20.66
2019-04-27T17:16:08.625Z,20.64
2019-04-27T17:18:46.334Z,20.63
2019-04-27T17:21:23.259Z,20.60
2019-04-27T17:23:58.745Z,20.56
2019-04-27T17:26:29.248Z,20.53
2019-04-27T17:29:10.906Z,20.51
2019-04-27T17:31:42.750Z,20.48
2019-04-27T17:34:33.134Z,20.40
2019-04-27T17:37:08.788Z,20.33
2019-04-27T17:39:41.462Z,20.28
2019-04-27T17:42:14.165Z,20.25
2019-04-27T17:44:48.603Z,20.22
2019-04-27T17:47:26.502Z,20.11
2019-04-27T17:49:58.364Z,19.94
2019-04-27T17:52:31.430Z,19.81
2019-04-27T17:55:05.417Z,19.70
2019-04-27T17:58:00.553Z,19.53
2019-04-27T18:00:47.671Z,19.35
2019-04-27T18:03:21.158Z,19.20
2019-04-27T18:06:11.876Z,18.96
2019-04-27T18:09:03.453Z,18.76
2019-04-27T18:11:54.548Z,18.57
2019-04-27T18:14:32.600Z,18.42
2019-04-27T18:17:03.631Z,18.30
2019-04-27T18:19:44.210Z,18.21
2019-04-27T18:22:18.151Z,18.08
2019-04-27T18:25:03.276Z,18.02
2019-04-27T18:27:37.698Z,17.97
2019-04-27T18:30:24.844Z,17.92
2019-04-27T18:33:02.039Z,17.88
2019-04-27T18:35:33.589Z,17.86
2019-04-27T18:38:06.870Z,17.85
2019-04-27T18:40:40.109Z,17.83
2019-04-27T18:43:13.161Z,17.82
2019-04-27T18:45:48.484Z,17.81
2019-04-27T18:48:28.832Z,17.79
2019-04-27T18:51:25.080Z,17.77
2019-04-27T18:53:59.703Z,17.68
2019-04-27T18:56:33.502Z,17.69
2019-04-27T18:59:04.747Z,17.64
2019-04-27T19:01:37.307Z,17.58
2019-04-27T19:04:10.298Z,17.59
2019-04-27T19:06:42.660Z,17.61
2019-04-27T19:09:18.604Z,17.66
2019-04-27T19:11:58.443Z,17.69
2019-04-27T19:14:25.715Z,17.73
2019-04-27T19:16:59.250Z,17.72
2019-04-27T19:19:31.595Z,17.73
2019-04-27T19:22:04.436Z,17.72
2019-04-27T19:24:37.196Z,17.69
2019-04-27T19:27:20.575Z,17.66
2019-04-27T19:29:53.533Z,17.62
2019-04-27T19:32:28.204Z,17.61
2019-04-27T19:35:01.109Z,17.60
2019-04-27T19:37:33.870Z,17.60
2019-04-27T19:40:09.591Z,17.27
2019-04-27T19:42:42.389Z,17.58
2019-04-27T19:45:14.852Z,17.55
2019-04-27T19:47:48.657Z,17.49
2019-04-27T19:50:21.470Z,17.37
2019-04-27T19:52:54.281Z,17.31
2019-04-27T19:55:28.073Z,17.28
2019-04-27T19:58:02.436Z,17.27
2019-04-27T20:00:55.004Z,17.23
2019-04-27T20:03:31.837Z,17.14
2019-04-27T20:06:05.053Z,17.09
2019-04-27T20:08:42.573Z,17.04
2019-04-27T20:11:15.722Z,17.05
2019-04-27T20:13:50.587Z,17.09
2019-04-27T20:16:24.268Z,17.11
2019-04-27T20:18:56.945Z,17.12
2019-04-27T20:21:30.905Z,17.14
2019-04-27T20:24:03.801Z,17.14
2019-04-27T20:26:36.459Z,17.12
2019-04-27T20:29:11.663Z,17.12
2019-04-27T20:31:43.490Z,17.11
2019-04-27T20:34:15.423Z,17.06
2019-04-27T20:36:47.388Z,17.03
2019-04-27T20:39:19.325Z,16.98
2019-04-27T20:41:52.253Z,16.95
2019-04-27T20:44:24.194Z,16.97
2019-04-27T20:46:56.160Z,17.00
2019-04-27T20:49:28.122Z,17.04
2019-04-27T20:52:11.579Z,17.09
2019-04-27T20:54:43.871Z,17.10
2019-04-27T20:57:15.867Z,17.09
2019-04-27T20:59:50.504Z,17.09
2019-04-27T21:02:32.111Z,17.12
2019-04-27T21:05:07.822Z,17.13
2019-04-27T21:07:42.171Z,17.13
2019-04-27T21:10:15.657Z,17.13
2019-04-27T21:12:48.084Z,17.17
2019-04-27T21:15:21.437Z,17.17
2019-04-27T21:17:54.122Z,17.17
2019-04-27T21:20:26.557Z,17.17
2019-04-27T21:22:59.216Z,17.14
2019-04-27T21:25:33.654Z,17.12
2019-04-27T21:28:16.450Z,17.12
2019-04-27T21:30:40.586Z,17.11
2019-04-27T21:33:12.520Z,17.11
2019-04-27T21:35:46.239Z,17.11
2019-04-27T21:38:18.227Z,17.12
2019-04-27T21:40:50.185Z,17.12
2019-04-27T21:43:22.134Z,17.13
2019-04-27T21:45:54.109Z,17.13
2019-04-27T21:48:26.038Z,17.12
2019-04-27T21:50:57.998Z,17.10
2019-04-27T21:53:31.573Z,17.09
2019-04-27T21:56:05.401Z,17.08
2019-04-27T21:58:37.337Z,17.05
2019-04-27T22:01:11.598Z,17.06
2019-04-27T22:03:44.662Z,17.05
2019-04-27T22:06:16.887Z,17.05
2019-04-27T22:08:51.186Z,17.05
2019-04-27T22:11:23.681Z,17.06
2019-04-27T22:13:55.951Z,17.06
2019-04-27T22:16:28.227Z,17.05
2019-04-27T22:19:01.800Z,17.03
2019-04-27T22:21:33.827Z,17.01
2019-04-27T22:24:07.561Z,16.98
2019-04-27T22:26:41.470Z,16.98
2019-04-27T22:29:13.588Z,16.97
2019-04-27T22:31:45.846Z,16.97
2019-04-27T22:34:17.786Z,16.96
2019-04-27T22:36:49.745Z,16.98
2019-04-27T22:39:26.166Z,16.99
2019-04-27T22:42:14.940Z,16.98
2019-04-27T22:44:48.510Z,16.97
2019-04-27T22:47:21.595Z,16.98
2019-04-27T22:49:53.613Z,16.99
2019-04-27T22:52:25.643Z,16.99
2019-04-27T22:54:57.583Z,17.01
2019-04-27T22:57:31.513Z,17.01
2019-04-27T23:00:07.697Z,17.01
2019-04-27T23:02:41.281Z,17.00
2019-04-27T23:05:13.313Z,16.97
2019-04-27T23:07:45.259Z,16.95
2019-04-27T23:10:17.290Z,16.95
2019-04-27T23:12:50.978Z,16.93
2019-04-27T23:15:24.530Z,16.95
2019-04-27T23:17:57.251Z,16.94
2019-04-27T23:20:29.208Z,16.94
2019-04-27T23:23:02.841Z,16.94
2019-04-27T23:25:35.401Z,16.93
2019-04-27T23:28:07.337Z,16.92
2019-04-27T23:30:43.816Z,16.87
2019-04-27T23:33:17.611Z,16.85
2019-04-27T23:35:51.556Z,16.81
2019-04-27T23:38:23.240Z,16.80
2019-04-27T23:40:55.581Z,16.75
2019-04-27T23:43:27.945Z,16.72
2019-04-27T23:46:01.625Z,16.70
2019-04-27T23:48:33.660Z,16.68
2019-04-27T23:51:07.331Z,16.66
2019-04-27T23:53:41.701Z,16.62
2019-04-27T23:56:13.811Z,16.59
2019-04-27T23:58:45.762Z,16.59
